createdAt,value
2023-04-16T00:00:39.523Z,100409.84
2023-04-16T00:03:09.301Z,100413.69
2023-04-16T00:05:36.255Z,100413.22
2023-04-16T00:08:06.105Z,100415.09
2023-04-16T00:10:33.020Z,100409.41
2023-04-16T00:12:59.794Z,100407.59
2023-04-16T00:15:26.584Z,100412.09
2023-04-16T00:17:56.276Z,100414.06
2023-04-16T00:20:23.048Z,100417.25
2023-04-16T00:22:59.968Z,100415.53
2023-04-16T00:25:26.705Z,100417.59
2023-04-16T00:27:53.505Z,100404.13
2023-04-16T00:30:20.246Z,100401.94
2023-04-16T00:32:49.883Z,100409.16
2023-04-16T00:35:16.729Z,100403.66
2023-04-16T00:37:43.511Z,100407.94
2023-04-16T00:40:10.633Z,100402.72
2023-04-16T00:42:37.379Z,100407.19
2023-04-16T00:45:05.620Z,100410.53
2023-04-16T00:47:32.429Z,100416.09
2023-04-16T00:49:59.513Z,100421.53
2023-04-16T00:52:27.602Z,100413.84
2023-04-16T00:54:58.223Z,100416.50
2023-04-16T00:57:24.991Z,100413.19
2023-04-16T00:59:59.458Z,100420.84
2023-04-16T01:02:29.235Z,100423.78
2023-04-16T01:05:01.909Z,100411.50
2023-04-16T01:07:40.640Z,100412.69
2023-04-16T01:10:07.905Z,100417.81
2023-04-16T01:12:34.668Z,100416.53
2023-04-16T01:15:01.522Z,100423.75
2023-04-16T01:17:28.311Z,100419.13
2023-04-16T01:19:59.324Z,100417.50
2023-04-16T01:22:28.945Z,100415.75
2023-04-16T01:25:06.303Z,100419.22
2023-04-16T01:27:45.251Z,100428.81
2023-04-16T01:30:15.032Z,100420.66
2023-04-16T01:32:42.128Z,100424.25
2023-04-16T01:35:09.001Z,100414.97
2023-04-16T01:37:35.757Z,100419.25
2023-04-16T01:40:06.679Z,100425.66
2023-04-16T01:42:33.536Z,100423.31
2023-04-16T01:45:00.295Z,100426.38
2023-04-16T01:50:11.462Z,100426.47
2023-04-16T01:52:40.915Z,100432.13
2023-04-16T01:55:08.985Z,100434.19
2023-04-16T01:57:35.741Z,100434.94
2023-04-16T02:00:03.428Z,100437.56
2023-04-16T02:02:33.164Z,100433.81
2023-04-16T02:04:59.986Z,100437.81
2023-04-16T02:07:29.836Z,100436.56
2023-04-16T02:09:56.558Z,100441.47
2023-04-16T02:12:23.268Z,100446.34
2023-04-16T02:15:13.411Z,100433.75
2023-04-16T02:17:40.264Z,100440.72
2023-04-16T02:20:07.682Z,100439.94
2023-04-16T02:22:35.212Z,100433.03
2023-04-16T02:25:01.935Z,100433.94
2023-04-16T02:27:28.692Z,100439.34
2023-04-16T02:29:55.465Z,100446.59
2023-04-16T02:32:22.300Z,100449.88
2023-04-16T02:34:49.077Z,100448.50
2023-04-16T02:37:15.879Z,100444.00
2023-04-16T02:39:42.602Z,100448.38
2023-04-16T02:42:09.370Z,100451.44
2023-04-16T02:44:36.117Z,100457.38
2023-04-16T02:47:14.767Z,100463.63
2023-04-16T02:49:51.552Z,100452.78
2023-04-16T02:52:21.486Z,100452.88
2023-04-16T02:54:48.246Z,100455.34
2023-04-16T02:57:17.737Z,100459.63
2023-04-16T02:59:45.324Z,100460.13
2023-04-16T03:02:17.740Z,100469.06
2023-04-16T03:05:10.602Z,100470.81
2023-04-16T03:07:40.859Z,100471.75
2023-04-16T03:10:08.661Z,100472.88
2023-04-16T03:12:36.056Z,100477.78
2023-04-16T03:15:06.234Z,100474.69
2023-04-16T03:17:33.198Z,100476.38
2023-04-16T03:20:00.189Z,100480.88
2023-04-16T03:22:32.132Z,100472.34
2023-04-16T03:24:58.929Z,100475.38
2023-04-16T03:27:31.996Z,100479.84
2023-04-16T03:29:58.797Z,100476.78
2023-04-16T03:32:25.953Z,100482.25
2023-04-16T03:34:52.787Z,100484.00
2023-04-16T03:37:30.071Z,100494.06
2023-04-16T03:40:02.698Z,100490.97
2023-04-16T03:42:29.448Z,100493.53
2023-04-16T03:44:56.184Z,100493.00
2023-04-16T03:47:25.777Z,100487.16
2023-04-16T03:49:57.084Z,100486.91
2023-04-16T03:52:23.833Z,100484.66
2023-04-16T03:54:59.697Z,100487.72
2023-04-16T03:57:35.567Z,100492.41
2023-04-16T04:00:02.496Z,100500.38
2023-04-16T04:02:29.444Z,100499.63
2023-04-16T04:04:56.472Z,100505.13
2023-04-16T04:07:27.892Z,100504.75
2023-04-16T04:09:57.295Z,100500.38
2023-04-16T04:12:24.184Z,100508.66
2023-04-16T04:14:50.940Z,100517.72
2023-04-16T04:17:23.164Z,100514.66
2023-04-16T04:20:01.205Z,100522.53
2023-04-16T04:22:28.589Z,100519.13
2023-04-16T04:24:55.381Z,100521.34
2023-04-16T04:27:31.701Z,100523.09
2023-04-16T04:29:58.507Z,100524.38
2023-04-16T04:32:27.343Z,100527.94
2023-04-16T04:34:54.231Z,100530.34
2023-04-16T04:37:27.171Z,100542.53
2023-04-16T04:39:56.731Z,100548.00
2023-04-16T04:42:23.581Z,100554.16
2023-04-16T04:44:50.365Z,100557.63
2023-04-16T04:47:17.148Z,100552.50
2023-04-16T04:49:48.750Z,100559.03
2023-04-16T04:52:15.684Z,100571.66
2023-04-16T04:54:42.611Z,100569.94
2023-04-16T04:57:12.056Z,100569.38
2023-04-16T04:59:46.740Z,100563.06
2023-04-16T05:02:13.753Z,100565.06
2023-04-16T05:04:42.321Z,100576.94
2023-04-16T05:07:20.715Z,100576.13
2023-04-16T05:09:53.066Z,100577.09
2023-04-16T05:12:19.793Z,100575.72
2023-04-16T05:14:48.278Z,100589.66
2023-04-16T05:17:15.028Z,100593.00
2023-04-16T05:19:54.875Z,100597.00
2023-04-16T05:22:30.481Z,100601.56
2023-04-16T05:24:57.254Z,100603.09
2023-04-16T05:27:26.714Z,100602.53
2023-04-16T05:29:56.373Z,100610.78
2023-04-16T05:34:58.280Z,100609.13
2023-04-16T05:37:33.080Z,100612.38
2023-04-16T05:40:02.677Z,100612.78
2023-04-16T05:42:36.333Z,100614.41
2023-04-16T05:45:10.887Z,100608.25
2023-04-16T05:47:40.024Z,100620.47
2023-04-16T05:50:14.715Z,100620.19
2023-04-16T05:52:42.077Z,100623.72
2023-04-16T05:55:13.134Z,100625.88
2023-04-16T05:57:50.963Z,100627.94
2023-04-16T06:00:29.463Z,100634.38
2023-04-16T06:03:04.018Z,100633.91
2023-04-16T06:05:31.297Z,100634.28
2023-04-16T06:07:58.578Z,100642.50
2023-04-16T06:10:25.432Z,100641.41
2023-04-16T06:12:52.191Z,100644.75
2023-04-16T06:15:24.549Z,100643.31
2023-04-16T06:18:01.239Z,100636.72
2023-04-16T06:20:36.668Z,100638.25
2023-04-16T06:23:17.714Z,100646.28
2023-04-16T06:25:48.091Z,100653.47
2023-04-16T06:28:17.336Z,100647.66
2023-04-16T06:30:44.744Z,100651.56
2023-04-16T06:33:12.054Z,100657.69
2023-04-16T06:35:41.978Z,100654.31
2023-04-16T06:38:12.050Z,100649.66
2023-04-16T06:40:47.552Z,100652.09
2023-04-16T06:43:17.322Z,100655.59
2023-04-16T06:45:47.425Z,100656.50
2023-04-16T06:48:18.068Z,100655.66
2023-04-16T06:50:50.641Z,100652.91
2023-04-16T06:53:19.131Z,100649.06
2023-04-16T06:55:45.822Z,100664.94
2023-04-16T06:58:15.391Z,100660.25
2023-04-16T07:00:42.129Z,100659.88
2023-04-16T07:03:12.278Z,100655.09
2023-04-16T07:05:45.551Z,100664.06
2023-04-16T07:08:12.340Z,100659.69
2023-04-16T07:10:39.224Z,100665.16
2023-04-16T07:13:06.008Z,100665.75
2023-04-16T07:15:32.778Z,100668.09
2023-04-16T07:18:06.404Z,100669.31
2023-04-16T07:20:36.268Z,100674.81
2023-04-16T07:23:03.149Z,100670.16
2023-04-16T07:25:32.900Z,100670.94
2023-04-16T07:27:59.657Z,100671.38
2023-04-16T07:30:26.513Z,100664.63
2023-04-16T07:32:53.353Z,100667.31
2023-04-16T07:35:22.549Z,100671.59
2023-04-16T07:40:32.794Z,100672.06
2023-04-16T07:43:10.648Z,100673.41
2023-04-16T07:45:41.272Z,100677.09
2023-04-16T07:48:08.667Z,100675.84
2023-04-16T07:53:15.936Z,100679.06
2023-04-16T07:55:45.832Z,100677.09
2023-04-16T07:58:12.585Z,100681.53
2023-04-16T08:00:39.838Z,100680.34
2023-04-16T08:03:12.643Z,100682.38
2023-04-16T08:05:42.705Z,100690.53
2023-04-16T08:08:12.666Z,100691.31
2023-04-16T08:10:42.587Z,100687.69
2023-04-16T08:13:15.409Z,100684.84
2023-04-16T08:15:43.680Z,100699.31
2023-04-16T08:18:10.503Z,100693.81
2023-04-16T08:20:50.373Z,100702.59
2023-04-16T08:23:21.855Z,100696.91
2023-04-16T08:25:48.596Z,100700.53
2023-04-16T08:28:20.537Z,100706.66
2023-04-16T08:30:49.418Z,100699.75
2023-04-16T08:33:24.207Z,100705.44
2023-04-16T08:35:50.996Z,100707.09
2023-04-16T08:38:20.596Z,100702.38
2023-04-16T08:40:48.630Z,100706.25
2023-04-16T08:43:18.065Z,100704.44
2023-04-16T08:45:47.943Z,100701.78
2023-04-16T08:48:15.510Z,100706.91
2023-04-16T08:50:52.719Z,100712.59
2023-04-16T08:53:40.302Z,100712.78
2023-04-16T08:56:14.259Z,100708.09
2023-04-16T08:58:41.362Z,100709.31
2023-04-16T09:01:10.081Z,100712.38
2023-04-16T09:03:37.134Z,100705.03
2023-04-16T09:06:07.742Z,100707.91
2023-04-16T09:08:38.272Z,100707.53
2023-04-16T09:11:07.767Z,100703.63
2023-04-16T09:13:45.729Z,100707.09
2023-04-16T09:16:21.412Z,100707.09
2023-04-16T09:18:48.270Z,100717.09
2023-04-16T09:21:23.902Z,100704.59
2023-04-16T09:23:53.425Z,100712.38
2023-04-16T09:26:23.901Z,100711.16
2023-04-16T09:28:53.668Z,100711.69
2023-04-16T09:31:32.746Z,100715.00
2023-04-16T09:34:12.152Z,100710.63
2023-04-16T09:36:41.565Z,100715.72
2023-04-16T09:39:19.477Z,100709.84
2023-04-16T09:41:53.696Z,100707.19
2023-04-16T09:44:20.552Z,100715.72
2023-04-16T09:46:56.992Z,100715.03
2023-04-16T09:49:26.632Z,100716.16
2023-04-16T09:51:54.676Z,100710.34
2023-04-16T09:54:35.167Z,100712.91
2023-04-16T09:57:01.903Z,100720.13
2023-04-16T09:59:28.650Z,100708.94
2023-04-16T10:02:14.698Z,100707.16
2023-04-16T10:04:46.712Z,100719.78
2023-04-16T10:07:13.498Z,100706.00
2023-04-16T10:09:41.135Z,100714.69
2023-04-16T10:12:14.461Z,100704.31
2023-04-16T10:14:42.079Z,100714.78
2023-04-16T10:19:54.876Z,100713.50
2023-04-16T10:22:25.502Z,100708.25
2023-04-16T10:24:53.315Z,100705.91
2023-04-16T10:27:22.996Z,100720.00
2023-04-16T10:29:52.461Z,100716.66
2023-04-16T10:32:20.190Z,100714.66
2023-04-16T10:34:52.731Z,100704.34
2023-04-16T10:37:32.569Z,100713.13
2023-04-16T10:39:59.651Z,100710.19
2023-04-16T10:42:35.073Z,100716.59
2023-04-16T10:45:01.829Z,100715.31
2023-04-16T10:47:31.596Z,100715.59
2023-04-16T10:49:58.522Z,100711.69
2023-04-16T10:52:29.671Z,100700.84
2023-04-16T10:54:59.743Z,100714.72
2023-04-16T10:57:32.067Z,100710.44
2023-04-16T11:00:02.019Z,100704.22
2023-04-16T11:02:37.450Z,100709.44
2023-04-16T11:05:04.752Z,100700.50
2023-04-16T11:07:36.158Z,100698.97
2023-04-16T11:10:07.613Z,100698.63
2023-04-16T11:12:48.424Z,100709.56
2023-04-16T11:15:16.800Z,100703.25
2023-04-16T11:17:47.513Z,100700.75
2023-04-16T11:20:24.344Z,100707.31
2023-04-16T11:23:00.005Z,100709.69
2023-04-16T11:25:32.374Z,100695.56
2023-04-16T11:28:04.882Z,100697.59
2023-04-16T11:30:36.855Z,100703.78
2023-04-16T11:33:09.164Z,100703.03
2023-04-16T11:35:35.936Z,100693.41
2023-04-16T11:38:06.158Z,100693.00
2023-04-16T11:40:35.976Z,100697.34
2023-04-16T11:43:12.916Z,100704.97
2023-04-16T11:45:53.743Z,100690.63
2023-04-16T11:48:20.566Z,100698.53
2023-04-16T11:51:02.941Z,100695.06
2023-04-16T11:53:39.620Z,100700.00
2023-04-16T11:56:06.830Z,100702.13
2023-04-16T11:58:33.567Z,100697.72
2023-04-16T12:01:01.938Z,100694.16
2023-04-16T12:03:39.769Z,100708.84
2023-04-16T12:06:09.902Z,100690.91
2023-04-16T12:08:36.749Z,100700.31
2023-04-16T12:11:03.513Z,100696.63
2023-04-16T12:13:34.364Z,100698.25
2023-04-16T12:16:02.358Z,100694.75
2023-04-16T12:18:29.157Z,100691.47
2023-04-16T12:20:55.964Z,100697.34
2023-04-16T12:23:32.583Z,100689.56
2023-04-16T12:26:10.258Z,100688.84
2023-04-16T12:28:37.830Z,100696.09
2023-04-16T12:31:08.732Z,100691.06
2023-04-16T12:33:35.467Z,100680.28
2023-04-16T12:36:16.648Z,100667.56
2023-04-16T12:38:43.397Z,100688.09
2023-04-16T12:41:10.193Z,100687.06
2023-04-16T12:43:37.108Z,100686.31
2023-04-16T12:46:04.423Z,100688.50
2023-04-16T12:48:31.367Z,100684.63
2023-04-16T12:50:58.132Z,100690.94
2023-04-16T12:53:24.865Z,100681.56
2023-04-16T12:55:51.637Z,100682.19
2023-04-16T12:58:21.380Z,100685.94
2023-04-16T13:00:50.748Z,100684.63
2023-04-16T13:03:20.620Z,100682.09
2023-04-16T13:05:50.664Z,100682.78
2023-04-16T13:08:20.350Z,100664.34
2023-04-16T13:10:50.148Z,100674.41
2023-04-16T13:13:16.898Z,100674.66
2023-04-16T13:15:45.893Z,100666.41
2023-04-16T13:18:18.107Z,100657.97
2023-04-16T13:20:44.879Z,100657.59
2023-04-16T13:23:14.296Z,100656.84
2023-04-16T13:25:43.557Z,100658.53
2023-04-16T13:28:10.474Z,100653.50
2023-04-16T13:30:40.356Z,100655.69
2023-04-16T13:33:09.603Z,100651.38
2023-04-16T13:35:36.320Z,100654.88
2023-04-16T13:38:06.566Z,100650.44
2023-04-16T13:40:38.974Z,100652.00
2023-04-16T13:43:07.585Z,100657.72
2023-04-16T13:45:34.532Z,100654.06
2023-04-16T13:48:04.172Z,100655.91
2023-04-16T13:50:31.259Z,100656.75
2023-04-16T13:53:03.506Z,100657.16
2023-04-16T13:55:33.296Z,100663.97
2023-04-16T13:58:00.630Z,100659.97
2023-04-16T14:00:33.576Z,100648.56
2023-04-16T14:03:03.394Z,100655.44
2023-04-16T14:05:30.279Z,100652.63
2023-04-16T14:07:57.021Z,100647.97
2023-04-16T14:10:23.771Z,100645.31
2023-04-16T14:12:50.793Z,100656.28
2023-04-16T14:15:17.788Z,100644.13
2023-04-16T14:17:44.982Z,100655.09
2023-04-16T14:20:13.475Z,100649.72
2023-04-16T14:22:40.292Z,100652.72
2023-04-16T14:25:07.390Z,100646.19
2023-04-16T14:27:36.642Z,100646.50
2023-04-16T14:30:04.066Z,100640.41
2023-04-16T14:32:34.076Z,100639.53
2023-04-16T14:35:01.016Z,100646.56
2023-04-16T14:37:30.195Z,100640.72
2023-04-16T14:40:01.566Z,100637.38
2023-04-16T14:42:28.303Z,100643.53
2023-04-16T14:44:55.026Z,100640.72
2023-04-16T14:47:21.738Z,100635.16
2023-04-16T14:49:55.815Z,100642.13
2023-04-16T14:52:22.599Z,100635.84
2023-04-16T14:54:49.339Z,100633.91
2023-04-16T14:57:16.055Z,100644.22
2023-04-16T14:59:50.313Z,100644.88
2023-04-16T15:02:17.359Z,100647.69
2023-04-16T15:04:44.305Z,100648.84
2023-04-16T15:07:11.143Z,100649.41
2023-04-16T15:09:40.603Z,100652.53
2023-04-16T15:12:07.307Z,100647.59
2023-04-16T15:14:49.649Z,100659.81
2023-04-16T15:17:16.447Z,100656.16
2023-04-16T15:19:45.300Z,100657.41
2023-04-16T15:22:14.528Z,100660.25
2023-04-16T15:24:41.295Z,100666.53
2023-04-16T15:27:09.022Z,100667.50
2023-04-16T15:29:40.805Z,100667.94
2023-04-16T15:32:23.680Z,100663.03
2023-04-16T15:34:51.101Z,100665.25
2023-04-16T15:37:17.925Z,100670.44
2023-04-16T15:39:48.799Z,100669.06
2023-04-16T15:42:16.570Z,100674.47
2023-04-16T15:44:51.875Z,100668.41
2023-04-16T15:47:21.639Z,100671.25
2023-04-16T15:49:57.230Z,100667.31
2023-04-16T15:52:26.997Z,100672.81
2023-04-16T15:54:57.735Z,100672.75
2023-04-16T15:57:24.449Z,100678.97
2023-04-16T16:00:06.017Z,100675.50
2023-04-16T16:02:34.167Z,100681.03
2023-04-16T16:05:03.992Z,100690.25
2023-04-16T16:07:32.218Z,100692.84
2023-04-16T16:09:59.054Z,100689.03
2023-04-16T16:12:28.061Z,100690.50
2023-04-16T16:14:55.527Z,100690.78
2023-04-16T16:17:22.324Z,100693.19
2023-04-16T16:19:49.051Z,100692.34
2023-04-16T16:22:15.837Z,100693.38
2023-04-16T16:24:42.714Z,100691.19
2023-04-16T16:27:09.513Z,100702.88
2023-04-16T16:29:41.006Z,100694.09
2023-04-16T16:32:11.056Z,100701.50
2023-04-16T16:34:40.841Z,100700.94
2023-04-16T16:37:09.616Z,100713.38
2023-04-16T16:39:38.663Z,100704.78
2023-04-16T16:42:08.885Z,100707.66
2023-04-16T16:44:37.034Z,100715.47
2023-04-16T16:47:19.052Z,100715.47
2023-04-16T16:49:45.747Z,100716.53
2023-04-16T16:52:12.591Z,100718.75
2023-04-16T16:54:39.351Z,100721.47
2023-04-16T16:57:06.073Z,100719.28
2023-04-16T16:59:32.808Z,100720.56
2023-04-16T17:01:59.712Z,100728.50
2023-04-16T17:04:27.620Z,100722.09
2023-04-16T17:06:54.477Z,100725.75
2023-04-16T17:09:23.769Z,100725.78
2023-04-16T17:11:51.492Z,100736.41
2023-04-16T17:14:18.297Z,100735.63
2023-04-16T17:16:47.968Z,100736.69
2023-04-16T17:19:14.763Z,100739.59
2023-04-16T17:21:41.611Z,100734.31
2023-04-16T17:24:08.451Z,100735.59
2023-04-16T17:29:15.936Z,100746.84
2023-04-16T17:31:43.974Z,100745.41
2023-04-16T17:34:18.006Z,100750.94
2023-04-16T17:36:44.737Z,100752.56
2023-04-16T17:39:11.520Z,100758.72
2023-04-16T17:41:38.241Z,100763.66
2023-04-16T17:44:09.912Z,100760.78
2023-04-16T17:46:41.548Z,100764.91
2023-04-16T17:49:08.304Z,100762.66
2023-04-16T17:51:35.104Z,100774.91
2023-04-16T17:54:07.050Z,100774.69
2023-04-16T17:56:33.642Z,100773.69
2023-04-16T17:59:00.453Z,100771.03
2023-04-16T18:01:30.066Z,100786.16
2023-04-16T18:04:06.363Z,100781.06
2023-04-16T18:06:33.200Z,100788.00
2023-04-16T18:09:02.918Z,100784.91
2023-04-16T18:11:31.145Z,100784.31
2023-04-16T18:13:59.508Z,100788.63
2023-04-16T18:16:30.336Z,100783.69
2023-04-16T18:18:57.093Z,100791.44
2023-04-16T18:21:23.836Z,100790.63
2023-04-16T18:23:50.559Z,100791.66
2023-04-16T18:26:22.426Z,100781.44
2023-04-16T18:28:49.668Z,100791.06
2023-04-16T18:31:21.171Z,100795.53
2023-04-16T18:36:29.023Z,100791.66
2023-04-16T18:39:07.848Z,100798.00
2023-04-16T18:41:34.703Z,100795.94
2023-04-16T18:44:09.256Z,100802.06
2023-04-16T18:46:36.121Z,100802.69
2023-04-16T18:49:12.295Z,100794.91
2023-04-16T18:51:39.379Z,100805.94
2023-04-16T18:54:06.192Z,100806.53
2023-04-16T18:56:38.840Z,100800.22
2023-04-16T18:59:05.629Z,100810.00
2023-04-16T19:01:32.698Z,100806.94
2023-04-16T19:03:59.494Z,100808.56
2023-04-16T19:06:26.267Z,100808.09
2023-04-16T19:08:53.040Z,100810.53
2023-04-16T19:11:19.963Z,100807.69
2023-04-16T19:13:52.070Z,100812.53
2023-04-16T19:16:27.996Z,100808.19
2023-04-16T19:18:54.791Z,100813.81
2023-04-16T19:21:21.556Z,100818.09
2023-04-16T19:23:48.335Z,100802.03
2023-04-16T19:26:15.519Z,100807.78
2023-04-16T19:28:42.484Z,100807.13
2023-04-16T19:31:09.610Z,100811.16
2023-04-16T19:33:36.391Z,100808.25
2023-04-16T19:36:05.731Z,100809.25
2023-04-16T19:38:32.517Z,100809.34
2023-04-16T19:40:59.247Z,100813.81
2023-04-16T19:43:25.994Z,100814.03
2023-04-16T19:45:57.489Z,100816.84
2023-04-16T19:48:31.951Z,100814.00
2023-04-16T19:51:02.025Z,100818.34
2023-04-16T19:53:28.748Z,100819.97
2023-04-16T19:55:55.499Z,100827.47
2023-04-16T19:58:24.507Z,100817.22
2023-04-16T20:00:51.268Z,100823.16
2023-04-16T20:03:24.162Z,100821.34
2023-04-16T20:05:51.048Z,100820.31
2023-04-16T20:08:17.939Z,100815.38
2023-04-16T20:10:51.505Z,100812.13
2023-04-16T20:13:21.735Z,100819.66
2023-04-16T20:16:04.828Z,100826.44
2023-04-16T20:18:31.425Z,100813.56
2023-04-16T20:20:58.222Z,100812.44
2023-04-16T20:23:34.991Z,100812.81
2023-04-16T20:26:04.858Z,100809.88
2023-04-16T20:28:31.653Z,100809.16
2023-04-16T20:31:06.443Z,100810.63
2023-04-16T20:33:34.534Z,100817.06
2023-04-16T20:36:04.139Z,100812.66
2023-04-16T20:38:34.271Z,100821.31
2023-04-16T20:41:09.282Z,100817.81
2023-04-16T20:43:45.385Z,100823.94
2023-04-16T20:46:12.868Z,100814.75
2023-04-16T20:48:39.717Z,100815.81
2023-04-16T20:51:07.237Z,100823.53
2023-04-16T20:53:33.990Z,100815.44
2023-04-16T20:56:00.766Z,100820.09
2023-04-16T20:58:29.029Z,100816.59
2023-04-16T21:00:57.235Z,100814.50
2023-04-16T21:03:24.661Z,100819.19
2023-04-16T21:05:53.279Z,100816.28
2023-04-16T21:08:21.432Z,100811.75
2023-04-16T21:10:48.752Z,100810.94
2023-04-16T21:13:15.691Z,100813.31
2023-04-16T21:15:44.550Z,100818.59
2023-04-16T21:18:14.694Z,100813.63
2023-04-16T21:20:44.697Z,100814.03
2023-04-16T21:23:11.621Z,100811.13
2023-04-16T21:25:40.895Z,100805.94
2023-04-16T21:28:27.739Z,100810.50
2023-04-16T21:30:57.199Z,100808.38
2023-04-16T21:33:23.980Z,100810.81
2023-04-16T21:35:54.091Z,100799.19
2023-04-16T21:38:21.817Z,100805.13
2023-04-16T21:40:49.750Z,100805.31
2023-04-16T21:43:17.595Z,100803.47
2023-04-16T21:45:44.592Z,100803.25
2023-04-16T21:48:20.690Z,100810.72
2023-04-16T21:50:47.461Z,100804.59
2023-04-16T21:53:26.098Z,100810.78
2023-04-16T21:56:04.659Z,100805.25
2023-04-16T21:58:34.396Z,100804.41
2023-04-16T22:01:03.980Z,100811.09
2023-04-16T22:03:32.546Z,100804.03
2023-04-16T22:06:05.381Z,100814.16
2023-04-16T22:08:35.234Z,100814.44
2023-04-16T22:11:03.134Z,100812.19
2023-04-16T22:13:33.576Z,100807.84
2023-04-16T22:16:07.148Z,100809.34
2023-04-16T22:18:34.781Z,100808.78
2023-04-16T22:21:01.838Z,100817.34
2023-04-16T22:23:31.105Z,100800.56
2023-04-16T22:25:57.876Z,100814.44
2023-04-16T22:28:24.613Z,100806.69
2023-04-16T22:30:52.469Z,100796.31
2023-04-16T22:33:19.210Z,100805.75
2023-04-16T22:35:48.572Z,100804.94
2023-04-16T22:38:22.298Z,100808.72
2023-04-16T22:40:49.170Z,100807.66
2023-04-16T22:43:15.907Z,100803.13
2023-04-16T22:45:42.789Z,100799.75
2023-04-16T22:48:15.801Z,100802.22
2023-04-16T22:50:46.312Z,100803.81
2023-04-16T22:53:16.267Z,100803.16
2023-04-16T22:55:44.157Z,100798.06
2023-04-16T22:58:10.882Z,100806.63
2023-04-16T23:00:37.606Z,100796.00
2023-04-16T23:03:07.375Z,100802.16
2023-04-16T23:05:35.025Z,100806.44
2023-04-16T23:08:03.875Z,100805.81
2023-04-16T23:10:30.653Z,100803.66
2023-04-16T23:12:57.489Z,100800.47
2023-04-16T23:18:13.854Z,100804.69
2023-04-16T23:20:43.122Z,100809.75
2023-04-16T23:23:09.826Z,100804.97
2023-04-16T23:25:41.022Z,100814.09
2023-04-16T23:28:07.742Z,100811.47
2023-04-16T23:30:45.157Z,100811.72
2023-04-16T23:33:15.232Z,100809.56
2023-04-16T23:35:44.195Z,100802.06
2023-04-16T23:38:10.917Z,100806.94
2023-04-16T23:40:37.620Z,100806.81
2023-04-16T23:43:06.878Z,100808.34
2023-04-16T23:45:42.320Z,100809.38
2023-04-16T23:48:12.197Z,100807.94
2023-04-16T23:50:45.163Z,100811.22
2023-04-16T23:53:14.092Z,100813.81
2023-04-16T23:55:40.898Z,100811.72
2023-04-16T23:58:07.688Z,100804.28
